Time;durP1;ratioP1;P1;durP2;ratioP2;P2;SDS_P1;SDS_P2;PMS_P1;PMS_P2;Temp;Humidity;BMP_temperature;BMP_pressure;BME280_temperature;BME280_humidity;BME280_pressure;Samples;Min_cycle;Max_cycle;Signal;HPM_P1;HPM_P2
2023/06/11 00:01:30;;;;;;;6.03;3.47;;;;;;;;;;5021752;28;20037;-79
2023/06/11 00:03:56;;;;;;;4.07;2.15;;;;;;;;;;5010358;28;20040;-77
2023/06/11 00:06:22;;;;;;;4.05;2.03;;;;;;;;;;5005201;28;20095;-77
2023/06/11 00:08:49;;;;;;;3.55;1.80;;;;;;;;;;5022034;28;20814;-77
2023/06/11 00:11:15;;;;;;;4.10;2.05;;;;;;;;;;5021830;28;20082;-77
2023/06/11 00:13:40;;;;;;;4.60;1.90;;;;;;;;;;5023222;28;20045;-78
2023/06/11 00:16:06;;;;;;;4.47;2.20;;;;;;;;;;5021587;28;20044;-79
2023/06/11 00:18:31;;;;;;;3.97;2.10;;;;;;;;;;5026316;28;20403;-78
2023/06/11 00:20:58;;;;;;;6.10;2.03;;;;;;;;;;5015106;28;20519;-79
2023/06/11 00:23:24;;;;;;;6.07;2.20;;;;;;;;;;5012354;28;20471;-78
2023/06/11 00:25:50;;;;;;;5.60;2.22;;;;;;;;;;5003278;28;20070;-77
2023/06/11 00:28:15;;;;;;;6.07;2.20;;;;;;;;;;5022165;28;20029;-78
2023/06/11 00:30:41;;;;;;;4.95;2.30;;;;;;;;;;5021660;28;20063;-77
2023/06/11 00:33:06;;;;;;;5.95;1.92;;;;;;;;;;5005360;28;20560;-77
2023/06/11 00:35:32;;;;;;;5.00;1.95;;;;;;;;;;5021131;28;20046;-78
2023/06/11 00:37:57;;;;;;;4.00;2.08;;;;;;;;;;5005559;28;20045;-78
2023/06/11 00:40:23;;;;;;;4.25;1.90;;;;;;;;;;5020170;28;20041;-78
2023/06/11 00:42:50;;;;;;;4.18;1.90;;;;;;;;;;5021150;28;20068;-77
2023/06/11 00:45:16;;;;;;;5.07;2.10;;;;;;;;;;5010442;28;20033;-78
2023/06/11 00:47:42;;;;;;;4.80;1.70;;;;;;;;;;5010593;28;20034;-78
2023/06/11 00:50:08;;;;;;;5.13;1.85;;;;;;;;;;5002849;28;20542;-78
2023/06/11 00:52:36;;;;;;;4.00;1.88;;;;;;;;;;5000042;28;20056;-78
2023/06/11 00:55:03;;;;;;;4.90;2.28;;;;;;;;;;5004409;28;20444;-78
2023/06/11 00:57:28;;;;;;;5.20;1.95;;;;;;;;;;5019282;28;20152;-78
2023/06/11 00:59:55;;;;;;;4.90;2.08;;;;;;;;;;5019096;28;20124;-78
2023/06/11 01:02:29;;;;;;;4.78;2.10;;;;;;;;;;5021806;28;20065;-79
2023/06/11 01:04:58;;;;;;;4.50;2.10;;;;;;;;;;4988049;28;20038;-79
2023/06/11 01:07:30;;;;;;;4.57;2.00;;;;;;;;;;5025067;28;20095;-78
2023/06/11 01:09:56;;;;;;;3.80;2.05;;;;;;;;;;5024582;28;20037;-78
2023/06/11 01:12:22;;;;;;;3.50;1.85;;;;;;;;;;5024646;28;20049;-79
2023/06/11 01:14:47;;;;;;;9.23;2.10;;;;;;;;;;5009586;28;20484;-78
2023/06/11 01:17:15;;;;;;;6.22;1.90;;;;;;;;;;5003185;28;20127;-78
2023/06/11 01:19:52;;;;;;;4.57;2.00;;;;;;;;;;5022817;28;20057;-79
2023/06/11 01:22:35;;;;;;;7.15;1.88;;;;;;;;;;5022723;28;20095;-79
2023/06/11 01:25:12;;;;;;;4.90;2.22;;;;;;;;;;5023720;28;20036;-79
2023/06/11 01:27:44;;;;;;;4.85;1.90;;;;;;;;;;5016303;28;20034;-78
2023/06/11 01:30:17;;;;;;;3.78;1.85;;;;;;;;;;5029142;28;20044;-78
2023/06/11 01:32:47;;;;;;;3.70;1.85;;;;;;;;;;5024698;28;20095;-79
2023/06/11 01:35:13;;;;;;;4.22;1.80;;;;;;;;;;5014471;28;20330;-79
2023/06/11 01:37:44;;;;;;;4.00;1.70;;;;;;;;;;5024048;28;20519;-78
2023/06/11 01:40:12;;;;;;;4.57;1.83;;;;;;;;;;5039599;28;20040;-79
2023/06/11 01:42:37;;;;;;;5.13;2.40;;;;;;;;;;5007917;28;20048;-78
2023/06/11 01:45:03;;;;;;;4.00;1.88;;;;;;;;;;5029159;28;20033;-78
2023/06/11 01:47:28;;;;;;;3.40;1.70;;;;;;;;;;5013195;28;20480;-78
2023/06/11 01:49:54;;;;;;;4.68;1.83;;;;;;;;;;5023175;28;20037;-78
2023/06/11 01:52:20;;;;;;;4.05;1.88;;;;;;;;;;5023145;28;20460;-78
2023/06/11 01:54:46;;;;;;;4.47;2.10;;;;;;;;;;5007275;28;20037;-78
2023/06/11 01:57:11;;;;;;;3.63;1.85;;;;;;;;;;5006958;28;20033;-78
2023/06/11 01:59:37;;;;;;;4.32;1.95;;;;;;;;;;5024345;28;20037;-79
2023/06/11 02:02:03;;;;;;;4.82;2.03;;;;;;;;;;5023839;28;20187;-77
2023/06/11 02:07:23;;;;;;;4.57;1.90;;;;;;;;;;5024453;28;20052;-77
2023/06/11 02:09:49;;;;;;;5.05;2.00;;;;;;;;;;5030509;28;20489;-77
2023/06/11 02:12:14;;;;;;;3.65;1.88;;;;;;;;;;5023860;28;20384;-77
2023/06/11 02:14:40;;;;;;;6.05;1.60;;;;;;;;;;5003744;28;20033;-79
2023/06/11 02:17:05;;;;;;;3.72;1.63;;;;;;;;;;5024061;28;20766;-78
2023/06/11 02:19:31;;;;;;;3.42;1.67;;;;;;;;;;5024262;28;20041;-78
2023/06/11 02:21:56;;;;;;;3.40;1.70;;;;;;;;;;5007649;28;20037;-77
2023/06/11 02:24:22;;;;;;;3.75;1.70;;;;;;;;;;5024020;28;20029;-78
2023/06/11 02:26:47;;;;;;;4.30;2.05;;;;;;;;;;5007884;28;20088;-77
2023/06/11 02:29:13;;;;;;;3.00;1.48;;;;;;;;;;5024286;28;20045;-77
2023/06/11 02:31:38;;;;;;;4.07;1.50;;;;;;;;;;5023530;28;20079;-78
2023/06/11 02:34:03;;;;;;;3.58;1.70;;;;;;;;;;5006932;28;20120;-77
2023/06/11 02:36:29;;;;;;;8.93;1.88;;;;;;;;;;4998592;28;20682;-78
2023/06/11 02:38:58;;;;;;;8.40;1.90;;;;;;;;;;5023660;28;20715;-77
2023/06/11 02:41:23;;;;;;;5.00;1.83;;;;;;;;;;4998459;28;20033;-77
2023/06/11 02:43:49;;;;;;;5.47;1.80;;;;;;;;;;5010662;28;20257;-78
2023/06/11 02:46:14;;;;;;;3.58;1.60;;;;;;;;;;5025643;28;20036;-77
2023/06/11 02:48:39;;;;;;;4.80;2.20;;;;;;;;;;5007972;28;20040;-77
2023/06/11 02:51:05;;;;;;;4.13;1.88;;;;;;;;;;5022186;28;20124;-77
2023/06/11 02:53:33;;;;;;;4.60;1.90;;;;;;;;;;5013414;28;20037;-78
2023/06/11 02:55:59;;;;;;;5.93;1.73;;;;;;;;;;5014800;28;20040;-79
2023/06/11 02:58:24;;;;;;;4.50;1.67;;;;;;;;;;5027026;28;20730;-77
2023/06/11 03:00:49;;;;;;;4.72;1.70;;;;;;;;;;5009190;28;20039;-78
2023/06/11 03:03:15;;;;;;;4.22;1.90;;;;;;;;;;5014497;28;20383;-79
2023/06/11 03:05:40;;;;;;;3.80;1.63;;;;;;;;;;5026094;28;20037;-78
2023/06/11 03:08:06;;;;;;;4.28;1.90;;;;;;;;;;5027458;28;20044;-77
2023/06/11 03:10:31;;;;;;;7.60;1.95;;;;;;;;;;5016376;28;20116;-78
2023/06/11 03:12:56;;;;;;;4.03;1.77;;;;;;;;;;5026967;28;20107;-77
2023/06/11 03:15:22;;;;;;;3.55;1.60;;;;;;;;;;5006245;28;20057;-78
2023/06/11 03:17:47;;;;;;;3.97;2.05;;;;;;;;;;5017017;28;20044;-78
2023/06/11 03:20:13;;;;;;;4.53;1.50;;;;;;;;;;5027103;28;20094;-77
2023/06/11 03:22:38;;;;;;;3.63;1.67;;;;;;;;;;5026920;28;20094;-77
2023/06/11 03:25:04;;;;;;;4.70;1.70;;;;;;;;;;5015425;28;20617;-77
2023/06/11 03:27:30;;;;;;;4.25;2.08;;;;;;;;;;5025952;28;20493;-77
2023/06/11 03:29:56;;;;;;;3.53;1.95;;;;;;;;;;5031327;28;20040;-77
2023/06/11 03:32:21;;;;;;;3.50;1.63;;;;;;;;;;4992660;28;20037;-77
2023/06/11 03:34:46;;;;;;;4.32;1.80;;;;;;;;;;5000179;28;20033;-77
2023/06/11 03:37:12;;;;;;;4.32;1.70;;;;;;;;;;5025571;28;20107;-78
2023/06/11 03:39:37;;;;;;;4.65;1.83;;;;;;;;;;5023245;28;20087;-77
2023/06/11 03:42:03;;;;;;;4.88;1.60;;;;;;;;;;5025499;28;20059;-77
2023/06/11 03:44:28;;;;;;;5.10;1.90;;;;;;;;;;5026246;28;20614;-77
2023/06/11 03:46:54;;;;;;;5.20;1.92;;;;;;;;;;5009295;28;20304;-78
2023/06/11 03:49:19;;;;;;;5.20;1.90;;;;;;;;;;5001430;28;20037;-77
2023/06/11 03:51:45;;;;;;;4.00;1.63;;;;;;;;;;5025820;28;20033;-77
2023/06/11 03:54:10;;;;;;;2.88;1.50;;;;;;;;;;5009411;28;20041;-77
2023/06/11 03:56:35;;;;;;;4.80;2.03;;;;;;;;;;5009627;28;20032;-78
2023/06/11 03:59:01;;;;;;;3.95;1.80;;;;;;;;;;4991043;28;20026;-78
2023/06/11 04:01:32;;;;;;;4.97;2.15;;;;;;;;;;5022026;28;20033;-77
2023/06/11 04:03:57;;;;;;;7.20;1.88;;;;;;;;;;5021884;28;20493;-78
2023/06/11 04:06:27;;;;;;;4.88;1.80;;;;;;;;;;5021380;28;20030;-77
2023/06/11 04:08:52;;;;;;;4.32;1.75;;;;;;;;;;5022959;28;20029;-78
2023/06/11 04:11:18;;;;;;;3.97;1.60;;;;;;;;;;5022257;28;20050;-77
2023/06/11 04:13:49;;;;;;;4.65;2.20;;;;;;;;;;5022583;28;20040;-77
2023/06/11 04:16:15;;;;;;;5.55;1.77;;;;;;;;;;5008907;28;20063;-77
2023/06/11 04:18:40;;;;;;;4.82;1.52;;;;;;;;;;5022818;28;20037;-78
2023/06/11 04:21:05;;;;;;;5.03;1.80;;;;;;;;;;5005531;28;20040;-77
2023/06/11 04:23:32;;;;;;;6.72;1.80;;;;;;;;;;5023079;28;20040;-78
2023/06/11 04:25:58;;;;;;;4.70;1.57;;;;;;;;;;5025125;28;20533;-78
2023/06/11 04:28:26;;;;;;;4.68;1.55;;;;;;;;;;5007047;28;20038;-79
2023/06/11 04:30:52;;;;;;;4.45;1.77;;;;;;;;;;5007815;28;20044;-77
2023/06/11 04:33:17;;;;;;;6.45;1.67;;;;;;;;;;5009286;28;20043;-78
2023/06/11 04:35:43;;;;;;;5.28;1.80;;;;;;;;;;5008479;28;20041;-78
2023/06/11 04:38:08;;;;;;;4.15;1.50;;;;;;;;;;5029143;28;20136;-78
2023/06/11 04:40:34;;;;;;;5.72;1.80;;;;;;;;;;5029050;28;20045;-77
2023/06/11 04:43:00;;;;;;;5.50;1.67;;;;;;;;;;5037835;28;20045;-78
2023/06/11 04:45:33;;;;;;;3.70;1.45;;;;;;;;;;5010258;28;20033;-77
2023/06/11 04:48:03;;;;;;;4.13;1.60;;;;;;;;;;5026234;28;20041;-78
2023/06/11 04:50:31;;;;;;;4.57;1.40;;;;;;;;;;5014231;28;20497;-77
2023/06/11 04:53:01;;;;;;;5.75;1.85;;;;;;;;;;5009655;28;20842;-77
2023/06/11 04:55:27;;;;;;;3.28;1.58;;;;;;;;;;5007352;28;20050;-77
2023/06/11 04:57:54;;;;;;;5.65;1.48;;;;;;;;;;5015431;28;20041;-77
2023/06/11 05:00:20;;;;;;;4.53;1.60;;;;;;;;;;5009094;28;20091;-78
2023/06/11 05:02:45;;;;;;;3.80;1.60;;;;;;;;;;5015715;28;20448;-78
2023/06/11 05:05:11;;;;;;;4.40;1.85;;;;;;;;;;5025552;28;20091;-77
2023/06/11 05:07:36;;;;;;;5.13;1.60;;;;;;;;;;5021069;28;20037;-78
2023/06/11 05:10:02;;;;;;;5.00;1.60;;;;;;;;;;5010450;28;20029;-78
2023/06/11 05:12:27;;;;;;;3.47;1.80;;;;;;;;;;5013745;28;20044;-78
2023/06/11 05:14:53;;;;;;;7.07;1.80;;;;;;;;;;5021280;28;20434;-78
2023/06/11 05:17:18;;;;;;;3.40;1.60;;;;;;;;;;5021028;28;20075;-77
2023/06/11 05:19:43;;;;;;;5.95;1.60;;;;;;;;;;5006010;28;20056;-78
2023/06/11 05:22:09;;;;;;;7.97;1.60;;;;;;;;;;5001015;28;20041;-78
2023/06/11 05:24:34;;;;;;;4.70;1.58;;;;;;;;;;5001601;28;20037;-77
2023/06/11 05:27:00;;;;;;;3.85;1.65;;;;;;;;;;5036846;28;20033;-78
2023/06/11 05:29:26;;;;;;;4.05;1.70;;;;;;;;;;5002413;28;20034;-77
2023/06/11 05:31:51;;;;;;;3.58;1.60;;;;;;;;;;5011401;28;20041;-78
2023/06/11 05:34:17;;;;;;;4.70;1.70;;;;;;;;;;5011396;28;20773;-78
2023/06/11 05:36:45;;;;;;;3.60;1.85;;;;;;;;;;5011943;28;20128;-78
2023/06/11 05:39:11;;;;;;;3.90;1.80;;;;;;;;;;5018122;28;20037;-78
2023/06/11 05:41:36;;;;;;;2.92;1.52;;;;;;;;;;5008082;28;20041;-77
2023/06/11 05:44:02;;;;;;;7.13;1.70;;;;;;;;;;5010229;28;20037;-78
2023/06/11 05:46:28;;;;;;;5.22;1.98;;;;;;;;;;4997104;28;20507;-77
2023/06/11 05:48:54;;;;;;;5.43;1.70;;;;;;;;;;5012467;28;20488;-78
2023/06/11 05:51:19;;;;;;;3.92;1.30;;;;;;;;;;5027349;28;20095;-78
2023/06/11 05:53:46;;;;;;;4.78;1.50;;;;;;;;;;5028232;28;20136;-78
2023/06/11 05:56:11;;;;;;;5.90;1.85;;;;;;;;;;5028438;28;20962;-79
2023/06/11 05:58:37;;;;;;;3.47;1.60;;;;;;;;;;5018067;28;20075;-78
2023/06/11 06:01:03;;;;;;;4.05;1.50;;;;;;;;;;5026640;28;20060;-80
2023/06/11 06:03:33;;;;;;;5.30;1.80;;;;;;;;;;5029732;28;20120;-80
2023/06/11 06:05:59;;;;;;;3.60;1.90;;;;;;;;;;5013338;28;20438;-81
2023/06/11 06:08:26;;;;;;;3.55;2.05;;;;;;;;;;5028645;28;20400;-80
2023/06/11 06:10:52;;;;;;;5.68;1.63;;;;;;;;;;5028452;28;20033;-81
2023/06/11 06:13:18;;;;;;;6.13;1.90;;;;;;;;;;5027950;28;20533;-81
2023/06/11 06:15:43;;;;;;;3.88;1.90;;;;;;;;;;5027432;28;20033;-81
2023/06/11 06:18:09;;;;;;;3.33;1.60;;;;;;;;;;5027887;28;20508;-80
2023/06/11 06:20:34;;;;;;;4.53;1.60;;;;;;;;;;5027579;28;20040;-81
2023/06/11 06:23:00;;;;;;;4.70;1.85;;;;;;;;;;5028507;28;20037;-81
2023/06/11 06:25:25;;;;;;;4.55;1.80;;;;;;;;;;5027980;28;20036;-81
2023/06/11 06:27:51;;;;;;;6.03;1.80;;;;;;;;;;5027866;28;20025;-81
2023/06/11 06:30:17;;;;;;;5.40;1.90;;;;;;;;;;5028177;28;20049;-81
2023/06/11 06:32:43;;;;;;;4.57;1.80;;;;;;;;;;5044679;28;20103;-81
2023/06/11 06:35:08;;;;;;;3.28;1.67;;;;;;;;;;5019891;28;20033;-81
2023/06/11 06:37:37;;;;;;;4.47;1.80;;;;;;;;;;5031634;28;20041;-83
2023/06/11 06:40:03;;;;;;;6.13;1.95;;;;;;;;;;5011801;28;20068;-81
2023/06/11 06:42:39;;;;;;;5.78;1.90;;;;;;;;;;5017493;28;20131;-80
2023/06/11 06:45:05;;;;;;;5.00;1.92;;;;;;;;;;5027571;28;20173;-81
2023/06/11 06:47:30;;;;;;;6.82;1.80;;;;;;;;;;5010453;28;20108;-80
2023/06/11 06:49:56;;;;;;;6.00;1.92;;;;;;;;;;5027418;28;20040;-81
2023/06/11 06:52:21;;;;;;;4.63;1.92;;;;;;;;;;5027026;28;20041;-80
2023/06/11 06:54:48;;;;;;;3.33;1.83;;;;;;;;;;5027821;28;20041;-79
2023/06/11 06:57:14;;;;;;;5.43;2.00;;;;;;;;;;5027588;28;20133;-80
2023/06/11 06:59:39;;;;;;;3.58;1.70;;;;;;;;;;5026603;28;20095;-80
2023/06/11 07:02:05;;;;;;;5.25;1.90;;;;;;;;;;5026421;28;20033;-80
2023/06/11 07:04:31;;;;;;;6.65;2.03;;;;;;;;;;5026724;28;20037;-81
2023/06/11 07:06:58;;;;;;;4.28;1.60;;;;;;;;;;5027862;28;20548;-81
2023/06/11 07:09:24;;;;;;;3.70;1.80;;;;;;;;;;5010479;28;20064;-80
2023/06/11 07:11:52;;;;;;;4.80;1.95;;;;;;;;;;5027500;28;20033;-80
2023/06/11 07:14:17;;;;;;;4.13;1.90;;;;;;;;;;5026862;28;20431;-80
2023/06/11 07:16:42;;;;;;;3.28;1.70;;;;;;;;;;5010740;28;20033;-81
2023/06/11 07:19:08;;;;;;;7.45;1.77;;;;;;;;;;5026954;28;20464;-80
2023/06/11 07:21:35;;;;;;;5.32;1.85;;;;;;;;;;5025553;28;20139;-80
2023/06/11 07:24:04;;;;;;;5.50;1.75;;;;;;;;;;5032290;28;20542;-81
2023/06/11 07:26:30;;;;;;;6.22;1.88;;;;;;;;;;4997759;28;20068;-82
2023/06/11 07:28:55;;;;;;;3.63;1.65;;;;;;;;;;5026009;28;20075;-81
2023/06/11 07:31:41;;;;;;;4.40;1.88;;;;;;;;;;5009559;28;20045;-80
2023/06/11 07:34:06;;;;;;;4.55;2.08;;;;;;;;;;4941598;28;20039;-81
2023/06/11 07:36:32;;;;;;;3.72;1.98;;;;;;;;;;4950569;28;20097;-82
2023/06/11 07:38:57;;;;;;;3.17;1.65;;;;;;;;;;4919747;28;20039;-81
2023/06/11 07:41:22;;;;;;;5.05;1.88;;;;;;;;;;4918090;28;20047;-80
2023/06/11 07:43:48;;;;;;;4.15;1.80;;;;;;;;;;4966599;28;20456;-81
2023/06/11 07:46:16;;;;;;;3.90;1.92;;;;;;;;;;4947610;28;20039;-81
2023/06/11 07:48:47;;;;;;;5.38;2.03;;;;;;;;;;4931087;28;20038;-80
2023/06/11 07:51:14;;;;;;;3.75;1.90;;;;;;;;;;4930925;28;20094;-81
2023/06/11 07:53:40;;;;;;;6.70;1.90;;;;;;;;;;4946310;28;20050;-79
2023/06/11 07:56:06;;;;;;;4.97;1.80;;;;;;;;;;4945894;28;20066;-81
2023/06/11 07:58:31;;;;;;;3.58;1.90;;;;;;;;;;4948095;28;21041;-80
2023/06/11 08:00:57;;;;;;;4.78;2.00;;;;;;;;;;4962516;28;20114;-83
2023/06/11 08:03:22;;;;;;;3.88;1.67;;;;;;;;;;4946915;28;20061;-82
2023/06/11 08:05:48;;;;;;;4.18;1.90;;;;;;;;;;4942845;28;20054;-81
2023/06/11 08:08:13;;;;;;;4.00;2.00;;;;;;;;;;4948049;28;20121;-81
2023/06/11 08:10:39;;;;;;;3.53;1.80;;;;;;;;;;4955620;28;20037;-82
2023/06/11 08:13:04;;;;;;;4.57;2.00;;;;;;;;;;4996468;28;20736;-79
2023/06/11 08:15:30;;;;;;;3.85;1.70;;;;;;;;;;5038927;28;20075;-79
2023/06/11 08:17:56;;;;;;;4.97;2.08;;;;;;;;;;5022440;28;20037;-79
2023/06/11 08:20:21;;;;;;;3.90;1.83;;;;;;;;;;5005795;28;20044;-79
2023/06/11 08:22:47;;;;;;;12.10;2.53;;;;;;;;;;5010938;28;20033;-83
2023/06/11 08:25:12;;;;;;;4.00;2.00;;;;;;;;;;5021434;28;20041;-79
2023/06/11 08:27:41;;;;;;;3.88;2.15;;;;;;;;;;5039179;28;20363;-80
2023/06/11 08:30:07;;;;;;;4.50;1.95;;;;;;;;;;5002656;28;20041;-80
2023/06/11 08:32:32;;;;;;;6.00;2.85;;;;;;;;;;4994603;28;20532;-79
2023/06/11 08:34:58;;;;;;;4.55;2.03;;;;;;;;;;5012129;28;20040;-85
2023/06/11 08:37:26;;;;;;;3.40;1.77;;;;;;;;;;4998774;28;20037;-88
2023/06/11 08:39:51;;;;;;;4.22;2.10;;;;;;;;;;5015033;28;20572;-80
2023/06/11 08:42:16;;;;;;;4.40;1.95;;;;;;;;;;5021577;28;20033;-80
2023/06/11 08:44:48;;;;;;;4.55;1.85;;;;;;;;;;5021067;28;20124;-83
2023/06/11 08:47:14;;;;;;;4.45;1.80;;;;;;;;;;5012651;28;20110;-82
2023/06/11 08:49:49;;;;;;;5.97;2.50;;;;;;;;;;4995941;28;20034;-80
2023/06/11 08:52:15;;;;;;;3.67;1.90;;;;;;;;;;5005260;28;20037;-82
2023/06/11 08:54:46;;;;;;;4.05;2.17;;;;;;;;;;5003032;28;20548;-82
2023/06/11 08:57:12;;;;;;;3.63;2.05;;;;;;;;;;4997954;28;20037;-81
2023/06/11 08:59:38;;;;;;;3.60;2.05;;;;;;;;;;5028528;28;20658;-82
2023/06/11 09:02:25;;;;;;;4.85;2.17;;;;;;;;;;5004067;28;20037;-84
2023/06/11 09:04:54;;;;;;;3.70;2.03;;;;;;;;;;4945771;28;20502;-81
2023/06/11 09:07:23;;;;;;;4.97;2.05;;;;;;;;;;4946739;28;20047;-82
2023/06/11 09:10:17;;;;;;;4.90;1.95;;;;;;;;;;4948732;28;20067;-85
2023/06/11 09:12:42;;;;;;;8.43;1.90;;;;;;;;;;4960276;28;20122;-81
2023/06/11 09:15:09;;;;;;;5.28;2.40;;;;;;;;;;4962439;28;20034;-82
2023/06/11 09:17:36;;;;;;;5.13;1.80;;;;;;;;;;4922561;28;20098;-85
2023/06/11 09:20:07;;;;;;;6.32;2.38;;;;;;;;;;4947613;28;20162;-84
2023/06/11 09:22:34;;;;;;;5.07;2.00;;;;;;;;;;4922688;28;20035;-84
2023/06/11 09:25:09;;;;;;;16.88;2.75;;;;;;;;;;4935222;28;20034;-79
2023/06/11 09:27:36;;;;;;;5.75;2.28;;;;;;;;;;4938061;28;20410;-82
2023/06/11 09:30:11;;;;;;;4.63;1.83;;;;;;;;;;4949922;28;20643;-85
2023/06/11 09:32:41;;;;;;;4.57;1.88;;;;;;;;;;4966904;28;20072;-84
2023/06/11 09:35:19;;;;;;;8.95;2.08;;;;;;;;;;4941675;28;20054;-82
2023/06/11 09:37:50;;;;;;;6.60;2.30;;;;;;;;;;4968189;28;20126;-82
2023/06/11 09:40:17;;;;;;;4.75;1.77;;;;;;;;;;4912756;28;20493;-81
2023/06/11 09:42:44;;;;;;;4.13;1.80;;;;;;;;;;5000915;28;20040;-82
2023/06/11 09:45:18;;;;;;;3.15;1.80;;;;;;;;;;5020040;28;20037;-82
2023/06/11 09:47:51;;;;;;;3.65;2.05;;;;;;;;;;4990708;28;20033;-82
2023/06/11 09:50:17;;;;;;;5.53;1.88;;;;;;;;;;5008612;28;20087;-84
2023/06/11 09:53:13;;;;;;;3.25;1.90;;;;;;;;;;5024676;28;20437;-83
2023/06/11 09:55:48;;;;;;;7.28;2.13;;;;;;;;;;4948711;28;20066;-89
2023/06/11 09:58:17;;;;;;;4.72;1.90;;;;;;;;;;4954755;28;20042;-84
2023/06/11 10:00:46;;;;;;;4.90;2.00;;;;;;;;;;4969856;28;20106;-85
2023/06/11 10:03:21;;;;;;;4.05;2.00;;;;;;;;;;4953109;28;20431;-85
2023/06/11 10:05:46;;;;;;;5.35;1.90;;;;;;;;;;4948135;28;20454;-83
2023/06/11 10:08:35;;;;;;;3.30;2.20;;;;;;;;;;4955969;28;20117;-83
2023/06/11 10:11:04;;;;;;;4.78;2.20;;;;;;;;;;4956282;28;20403;-84
2023/06/11 10:13:31;;;;;;;3.72;1.90;;;;;;;;;;4955371;28;20518;-82
2023/06/11 10:16:01;;;;;;;4.72;2.25;;;;;;;;;;4960416;28;20026;-83
2023/06/11 10:18:38;;;;;;;4.35;2.00;;;;;;;;;;4929042;28;20050;-84
2023/06/11 10:21:04;;;;;;;3.97;1.70;;;;;;;;;;4935752;28;20041;-83
2023/06/11 10:23:40;;;;;;;5.97;2.03;;;;;;;;;;4946787;28;20058;-83
2023/06/11 10:26:06;;;;;;;4.93;2.10;;;;;;;;;;4931895;28;20046;-84
2023/06/11 10:28:48;;;;;;;5.40;2.17;;;;;;;;;;4936084;28;20557;-82
2023/06/11 10:31:26;;;;;;;6.68;2.03;;;;;;;;;;4948366;28;20097;-83
2023/06/11 10:34:00;;;;;;;4.78;2.33;;;;;;;;;;4998008;28;20430;-84
2023/06/11 10:36:26;;;;;;;4.68;1.83;;;;;;;;;;4992490;28;20033;-83
2023/06/11 10:39:03;;;;;;;4.65;1.80;;;;;;;;;;4998299;28;20072;-84
2023/06/11 10:41:32;;;;;;;11.95;2.53;;;;;;;;;;5002599;28;20045;-81
2023/06/11 10:44:00;;;;;;;4.75;2.25;;;;;;;;;;5019550;28;20049;-85
2023/06/11 10:46:26;;;;;;;4.30;2.13;;;;;;;;;;5029331;28;20370;-82
2023/06/11 10:48:53;;;;;;;3.83;2.20;;;;;;;;;;5001566;28;20109;-86
2023/06/11 10:51:18;;;;;;;3.90;2.10;;;;;;;;;;4984605;28;20461;-84
2023/06/11 10:53:54;;;;;;;3.87;2.13;;;;;;;;;;5024452;28;20057;-83
2023/06/11 10:56:21;;;;;;;5.20;2.22;;;;;;;;;;5026581;28;20041;-83
2023/06/11 10:58:54;;;;;;;5.20;2.22;;;;;;;;;;5010750;28;20041;-84
2023/06/11 11:01:22;;;;;;;4.00;2.13;;;;;;;;;;5042128;28;20052;-83
2023/06/11 11:03:55;;;;;;;5.00;1.80;;;;;;;;;;5009158;28;20393;-83
2023/06/11 11:06:28;;;;;;;5.38;2.13;;;;;;;;;;5026050;28;20373;-83
2023/06/11 11:08:56;;;;;;;4.43;2.30;;;;;;;;;;5015276;28;20029;-83
2023/06/11 11:11:22;;;;;;;3.92;2.10;;;;;;;;;;5010753;28;20508;-84
2023/06/11 11:13:51;;;;;;;5.50;2.15;;;;;;;;;;5043228;28;20389;-82
2023/06/11 11:16:19;;;;;;;3.33;2.20;;;;;;;;;;5025762;28;20372;-82
2023/06/11 11:18:52;;;;;;;4.07;2.17;;;;;;;;;;5027026;28;20450;-83
2023/06/11 11:21:18;;;;;;;3.38;2.10;;;;;;;;;;5024117;28;20047;-83
2023/06/11 11:23:48;;;;;;;4.00;2.17;;;;;;;;;;5026653;28;21065;-82
2023/06/11 11:26:15;;;;;;;4.22;2.30;;;;;;;;;;5025099;28;20029;-84
2023/06/11 11:28:40;;;;;;;4.00;2.13;;;;;;;;;;5026877;28;20091;-82
2023/06/11 11:31:06;;;;;;;4.70;2.33;;;;;;;;;;5042643;28;20041;-83
2023/06/11 11:33:34;;;;;;;3.50;2.10;;;;;;;;;;5042884;28;20041;-83
2023/06/11 11:36:02;;;;;;;5.03;2.55;;;;;;;;;;5025994;28;20029;-82
2023/06/11 11:38:33;;;;;;;4.03;2.35;;;;;;;;;;5031215;28;20063;-83
2023/06/11 11:40:59;;;;;;;4.38;2.50;;;;;;;;;;5026078;28;20037;-83
2023/06/11 11:43:25;;;;;;;3.65;2.40;;;;;;;;;;5025333;28;20056;-83
2023/06/11 11:45:50;;;;;;;3.63;2.30;;;;;;;;;;5042091;28;20045;-84
2023/06/11 11:48:18;;;;;;;4.23;2.27;;;;;;;;;;5010054;28;20235;-83
2023/06/11 11:50:45;;;;;;;4.03;2.30;;;;;;;;;;5024491;28;20477;-82
2023/06/11 11:53:15;;;;;;;;;;;;;;;;;;5042761;28;20028;-83
2023/06/11 11:55:44;;;;;;;5.13;2.40;;;;;;;;;;5007304;28;19925;-82
2023/06/11 11:58:16;;;;;;;3.90;2.50;;;;;;;;;;5015046;28;20034;-83
2023/06/11 12:00:59;;;;;;;4.22;2.50;;;;;;;;;;5021831;28;20026;-84
2023/06/11 12:03:38;;;;;;;3.90;2.40;;;;;;;;;;5007553;28;20077;-86
2023/06/11 12:07:32;;;;;;;5.63;2.70;;;;;;;;;;4987979;28;20044;-86
2023/06/11 12:09:57;;;;;;;5.03;2.53;;;;;;;;;;4895631;29;20036;-85
2023/06/11 12:12:23;;;;;;;4.55;2.97;;;;;;;;;;4926265;28;20538;-84
2023/06/11 12:14:51;;;;;;;3.70;2.50;;;;;;;;;;4995432;28;20069;-84
2023/06/11 12:17:19;;;;;;;5.88;3.13;;;;;;;;;;5006945;28;20116;-86
2023/06/11 12:19:47;;;;;;;4.70;2.90;;;;;;;;;;5008378;28;20393;-84
2023/06/11 12:22:16;;;;;;;4.30;2.67;;;;;;;;;;5011497;28;20041;-85
2023/06/11 12:24:47;;;;;;;5.22;2.70;;;;;;;;;;5012289;28;20061;-85
2023/06/11 12:27:46;;;;;;;4.78;3.10;;;;;;;;;;4941232;28;20121;-85
2023/06/11 12:30:17;;;;;;;3.92;2.83;;;;;;;;;;4985885;28;20116;-85
2023/06/11 12:32:58;;;;;;;6.78;3.58;;;;;;;;;;4985227;28;20040;-83
2023/06/11 12:35:24;;;;;;;6.25;3.70;;;;;;;;;;4970101;28;20124;-83
2023/06/11 12:38:17;;;;;;;6.80;3.67;;;;;;;;;;4993902;28;20044;-84
2023/06/11 12:40:53;;;;;;;6.68;3.72;;;;;;;;;;5017532;28;20041;-85
2023/06/11 12:43:29;;;;;;;4.65;3.60;;;;;;;;;;5030377;28;20061;-85
2023/06/11 12:45:55;;;;;;;6.45;3.92;;;;;;;;;;5015937;28;20161;-84
2023/06/11 12:48:26;;;;;;;5.82;4.13;;;;;;;;;;4987971;28;20128;-85
2023/06/11 12:50:51;;;;;;;5.85;3.85;;;;;;;;;;4975349;28;20040;-83
2023/06/11 12:53:26;;;;;;;5.22;3.80;;;;;;;;;;4986443;28;20045;-83
2023/06/11 12:55:51;;;;;;;7.10;4.35;;;;;;;;;;4989068;28;20053;-84
2023/06/11 12:58:23;;;;;;;6.70;3.90;;;;;;;;;;5003810;28;20496;-84
2023/06/11 13:00:48;;;;;;;7.75;4.45;;;;;;;;;;5009524;28;20552;-84
2023/06/11 13:03:16;;;;;;;6.32;4.20;;;;;;;;;;4994366;28;20120;-84
2023/06/11 13:05:42;;;;;;;5.43;3.97;;;;;;;;;;4977751;28;20442;-86
2023/06/11 13:08:07;;;;;;;6.45;4.10;;;;;;;;;;4991250;28;20133;-85
2023/06/11 13:10:35;;;;;;;6.28;4.40;;;;;;;;;;5008857;28;20048;-85
2023/06/11 13:13:01;;;;;;;6.07;4.03;;;;;;;;;;4985498;28;20515;-83
2023/06/11 13:15:26;;;;;;;5.45;3.95;;;;;;;;;;4991069;28;20117;-83
2023/06/11 13:17:52;;;;;;;5.85;3.90;;;;;;;;;;5009530;28;20167;-84
2023/06/11 13:20:20;;;;;;;6.63;4.10;;;;;;;;;;4989523;28;20520;-83
2023/06/11 13:22:49;;;;;;;10.13;4.90;;;;;;;;;;4987798;28;20029;-85
2023/06/11 13:25:20;;;;;;;5.80;4.28;;;;;;;;;;4987681;28;20045;-85
2023/06/11 15:00:27;;;;;;;6.63;4.32;;;;;;;;;;4932990;28;20040;-88
2023/06/11 15:02:52;;;;;;;5.75;4.20;;;;;;;;;;4927994;28;20039;-88
2023/06/11 15:05:40;;;;;;;5.28;4.00;;;;;;;;;;4920826;28;20046;-86
2023/06/11 15:08:06;;;;;;;6.40;4.53;;;;;;;;;;4884114;29;20085;-88
2023/06/11 15:10:37;;;;;;;7.35;4.15;;;;;;;;;;4857390;29;20123;-88
2023/06/11 15:13:03;;;;;;;5.88;4.35;;;;;;;;;;4864201;29;20064;-88
2023/06/11 15:15:31;;;;;;;5.97;4.30;;;;;;;;;;4848418;29;20085;-86
2023/06/11 15:17:57;;;;;;;5.80;3.83;;;;;;;;;;4872258;29;20095;-83
2023/06/11 15:20:40;;;;;;;6.32;4.18;;;;;;;;;;4866628;29;20571;-88
2023/06/11 15:23:06;;;;;;;5.90;3.80;;;;;;;;;;4836111;29;20059;-87
2023/06/11 15:25:32;;;;;;;5.88;4.35;;;;;;;;;;4855205;29;20703;-87
2023/06/11 15:28:03;;;;;;;4.88;3.97;;;;;;;;;;4838402;29;20044;-88
2023/06/11 15:30:29;;;;;;;6.40;3.78;;;;;;;;;;4859474;29;20045;-87
2023/06/11 15:33:01;;;;;;;7.90;4.13;;;;;;;;;;4860418;29;20508;-88
2023/06/11 15:35:29;;;;;;;5.60;3.92;;;;;;;;;;4860685;29;20044;-88
2023/06/11 15:38:00;;;;;;;5.43;4.07;;;;;;;;;;4856129;29;20041;-83
2023/06/11 15:40:26;;;;;;;6.25;4.10;;;;;;;;;;4880062;29;20068;-82
2023/06/11 15:43:13;;;;;;;5.63;4.07;;;;;;;;;;4860600;29;20516;-81
2023/06/11 15:45:40;;;;;;;8.60;6.22;;;;;;;;;;4911982;28;20048;-82
2023/06/11 15:48:11;;;;;;;6.78;4.28;;;;;;;;;;4902425;28;20071;-82
2023/06/11 15:50:37;;;;;;;5.97;4.20;;;;;;;;;;4902778;28;20467;-80
2023/06/11 15:53:13;;;;;;;8.10;4.43;;;;;;;;;;4910886;28;20090;-81
2023/06/11 15:55:41;;;;;;;5.78;4.00;;;;;;;;;;4889081;29;20036;-80
2023/06/11 15:58:15;;;;;;;6.47;4.30;;;;;;;;;;4923889;28;20043;-82
2023/06/11 16:00:44;;;;;;;6.00;4.15;;;;;;;;;;4906580;28;20052;-83
2023/06/11 16:03:15;;;;;;;;;;;;;;;;;;4921934;28;20210;-82
2023/06/11 16:05:41;;;;;;;5.50;3.97;;;;;;;;;;4893534;29;19918;-82
2023/06/11 16:08:07;;;;;;;6.13;3.83;;;;;;;;;;4930947;28;20045;-84
2023/06/11 16:10:32;;;;;;;6.25;3.85;;;;;;;;;;4896016;28;20147;-84
2023/06/11 16:12:58;;;;;;;5.95;3.88;;;;;;;;;;4910450;28;20653;-85
2023/06/11 16:15:24;;;;;;;7.07;4.10;;;;;;;;;;4914880;28;20136;-85
2023/06/11 16:17:50;;;;;;;5.75;3.80;;;;;;;;;;4903995;28;20093;-86
2023/06/11 16:20:15;;;;;;;6.75;3.90;;;;;;;;;;4914822;28;20575;-85
2023/06/11 16:22:41;;;;;;;6.00;3.50;;;;;;;;;;4900908;29;20040;-85
2023/06/11 16:25:19;;;;;;;5.43;3.33;;;;;;;;;;4894600;28;20046;-84